Time;durP1;ratioP1;P1;durP2;ratioP2;P2;SDS_P1;SDS_P2;PMS_P1;PMS_P2;Temp;Humidity;BMP_temperature;BMP_pressure;BME280_temperature;BME280_humidity;BME280_pressure;Samples;Min_cycle;Max_cycle;Signal;HPM_P1;HPM_P2
2022/11/14 00:00:52;;;;;;;10.70;9.63;;;4.70;99.90;;;;;;5035501;28;20179;-65
2022/11/14 00:03:18;;;;;;;10.80;9.80;;;4.70;99.90;;;;;;5034273;28;20707;-66
2022/11/14 00:05:45;;;;;;;11.80;9.13;;;4.70;99.90;;;;;;5034032;28;20648;-66
2022/11/14 00:08:24;;;;;;;9.10;8.30;;;4.80;99.90;;;;;;5034222;28;20184;-66
2022/11/14 00:10:50;;;;;;;13.17;9.27;;;4.70;99.90;;;;;;5034135;28;20258;-65
2022/11/14 00:13:17;;;;;;;10.77;9.77;;;4.70;99.90;;;;;;5033747;28;20222;-65
2022/11/14 00:15:43;;;;;;;10.33;9.33;;;4.70;99.90;;;;;;5033792;28;20663;-65
2022/11/14 00:18:09;;;;;;;9.83;9.00;;;4.70;99.90;;;;;;5033843;28;20198;-65
2022/11/14 00:20:35;;;;;;;10.37;9.17;;;4.70;99.90;;;;;;5033551;28;20609;-66
2022/11/14 00:23:00;;;;;;;9.60;8.90;;;4.70;99.90;;;;;;5033531;28;20287;-67
2022/11/14 00:25:26;;;;;;;11.23;9.60;;;4.70;99.90;;;;;;5033684;28;20176;-66
2022/11/14 00:27:51;;;;;;;9.27;8.57;;;4.60;99.90;;;;;;5033974;28;20180;-66
2022/11/14 00:30:17;;;;;;;10.27;8.90;;;4.50;99.90;;;;;;5035256;28;20304;-66
2022/11/14 00:32:43;;;;;;;10.43;9.43;;;4.60;99.90;;;;;;5034124;28;20251;-67
2022/11/14 00:35:08;;;;;;;10.73;9.63;;;4.60;99.90;;;;;;5033357;28;20179;-67
2022/11/14 00:37:35;;;;;;;10.57;9.57;;;4.60;99.90;;;;;;5033548;28;20191;-66
2022/11/14 00:40:00;;;;;;;9.37;8.50;;;4.50;99.90;;;;;;5033243;28;20198;-66
2022/11/14 00:42:26;;;;;;;10.57;9.47;;;4.50;99.90;;;;;;5033509;28;20685;-66
2022/11/14 00:44:51;;;;;;;10.27;9.37;;;4.50;99.90;;;;;;5033123;28;20317;-67
2022/11/14 00:47:17;;;;;;;9.40;8.60;;;4.40;99.90;;;;;;5033552;28;20184;-67
2022/11/14 00:49:43;;;;;;;10.97;9.93;;;4.30;99.90;;;;;;5032785;28;20262;-66
2022/11/14 00:52:08;;;;;;;10.23;9.37;;;4.20;99.90;;;;;;5033379;28;20281;-66
2022/11/14 00:54:34;;;;;;;10.13;9.33;;;4.10;99.90;;;;;;5032976;28;20656;-67
2022/11/14 00:56:59;;;;;;;11.37;10.17;;;4.10;99.90;;;;;;5032367;28;20175;-66
2022/11/14 00:59:25;;;;;;;11.07;10.17;;;4.00;99.90;;;;;;5032659;28;20262;-66
2022/11/14 01:01:50;;;;;;;11.57;10.57;;;3.90;99.90;;;;;;5032901;28;20660;-66
2022/11/14 01:04:16;;;;;;;11.77;10.10;;;3.80;99.90;;;;;;5032959;28;20263;-67
2022/11/14 01:06:41;;;;;;;11.60;10.70;;;3.70;99.90;;;;;;5033027;28;20192;-66
2022/11/14 01:09:07;;;;;;;11.33;10.40;;;3.60;99.90;;;;;;5032728;28;20198;-66
2022/11/14 01:11:33;;;;;;;11.93;11.13;;;3.60;99.90;;;;;;5033205;28;20183;-66
2022/11/14 01:13:58;;;;;;;11.60;10.77;;;3.60;99.90;;;;;;5054447;22;20227;-66
2022/11/14 01:16:24;;;;;;;10.70;9.80;;;3.60;99.90;;;;;;5033128;28;20171;-66
2022/11/14 01:18:50;;;;;;;11.03;9.93;;;3.60;99.90;;;;;;5020626;28;20274;-68
2022/11/14 01:21:16;;;;;;;10.43;9.77;;;3.60;99.90;;;;;;5011542;28;20573;-66
2022/11/14 01:23:42;;;;;;;11.10;10.10;;;3.60;99.90;;;;;;5011301;28;20196;-66
2022/11/14 01:26:10;;;;;;;12.20;11.30;;;3.60;99.90;;;;;;5011600;28;20175;-66
2022/11/14 01:28:36;;;;;;;11.57;10.47;;;3.60;99.90;;;;;;5011327;28;20176;-66
2022/11/14 01:31:17;;;;;;;11.17;10.37;;;3.60;99.90;;;;;;5012923;28;20199;-66
2022/11/14 01:33:43;;;;;;;10.70;9.80;;;3.60;99.90;;;;;;5012460;28;20204;-66
2022/11/14 01:36:10;;;;;;;10.13;9.53;;;3.60;99.90;;;;;;5012962;28;20519;-66
2022/11/14 01:38:36;;;;;;;11.00;10.27;;;3.60;99.90;;;;;;5012358;28;20187;-66
2022/11/14 01:41:03;;;;;;;14.50;13.20;;;3.70;99.90;;;;;;5011224;28;20212;-66
2022/11/14 01:43:30;;;;;;;12.57;11.27;;;3.60;99.90;;;;;;5012303;28;20193;-66
2022/11/14 01:46:16;;;;;;;12.13;11.17;;;3.60;99.90;;;;;;5012655;28;20530;-66
2022/11/14 01:48:59;;;;;;;12.63;11.67;;;3.60;99.90;;;;;;5010557;28;20316;-66
2022/11/14 01:51:50;;;;;;;14.23;12.77;;;3.50;99.90;;;;;;5010711;28;20184;-66
2022/11/14 01:54:24;;;;;;;12.40;11.53;;;3.50;99.90;;;;;;5012276;28;20208;-66
2022/11/14 01:56:55;;;;;;;11.60;10.70;;;3.40;99.90;;;;;;5012136;28;20628;-66
2022/11/14 01:59:29;;;;;;;11.13;10.03;;;3.40;99.90;;;;;;5010985;28;20231;-66
2022/11/14 02:01:57;;;;;;;10.60;9.67;;;3.40;99.90;;;;;;5011838;28;20226;-66
2022/11/14 02:04:33;;;;;;;10.40;9.70;;;3.40;99.90;;;;;;5012235;28;20589;-66
2022/11/14 02:07:01;;;;;;;11.27;10.47;;;3.30;99.90;;;;;;5012272;28;20179;-66
2022/11/14 02:09:33;;;;;;;9.53;8.83;;;3.30;99.90;;;;;;5012054;28;20176;-66
2022/11/14 02:12:01;;;;;;;9.60;8.77;;;3.20;99.90;;;;;;5010751;28;20177;-67
2022/11/14 02:14:28;;;;;;;10.73;8.70;;;3.20;99.90;;;;;;5012388;28;20599;-67
2022/11/14 02:16:54;;;;;;;10.63;9.73;;;3.20;99.90;;;;;;5011796;28;20550;-67
2022/11/14 02:19:20;;;;;;;9.07;8.47;;;3.20;99.90;;;;;;5011951;28;20210;-67
2022/11/14 02:21:46;;;;;;;10.37;9.57;;;3.20;99.90;;;;;;5011423;28;20204;-67
2022/11/14 02:24:12;;;;;;;11.90;9.83;;;3.20;99.90;;;;;;5011282;28;20188;-67
2022/11/14 02:26:40;;;;;;;10.50;9.70;;;3.20;99.90;;;;;;5011678;28;20233;-67
2022/11/14 02:29:07;;;;;;;11.40;10.30;;;3.20;99.90;;;;;;5011984;28;20530;-67
2022/11/14 02:31:33;;;;;;;10.37;9.67;;;3.30;99.90;;;;;;5011520;28;20267;-67
2022/11/14 02:33:59;;;;;;;12.03;11.03;;;3.30;99.90;;;;;;5010582;28;20207;-67
2022/11/14 02:36:25;;;;;;;12.33;11.23;;;3.30;99.90;;;;;;5010400;28;20184;-67
2022/11/14 02:38:50;;;;;;;12.60;11.47;;;3.30;99.90;;;;;;5011882;28;20172;-67
2022/11/14 02:41:16;;;;;;;10.70;10.00;;;3.30;99.90;;;;;;5010050;28;20295;-67
2022/11/14 02:43:42;;;;;;;11.57;10.77;;;3.30;99.90;;;;;;5011640;28;20196;-67
2022/11/14 02:46:08;;;;;;;12.63;11.60;;;3.30;99.90;;;;;;5010398;28;20227;-67
2022/11/14 02:48:33;;;;;;;11.00;10.20;;;3.40;99.90;;;;;;5011752;28;20176;-67
2022/11/14 02:50:59;;;;;;;12.17;11.00;;;3.30;99.90;;;;;;5011185;28;20203;-67
2022/11/14 02:53:24;;;;;;;11.57;10.73;;;3.30;99.90;;;;;;5011953;28;20224;-67
2022/11/14 02:55:50;;;;;;;10.93;10.10;;;3.20;99.90;;;;;;5010052;28;20184;-67
2022/11/14 02:58:16;;;;;;;11.40;10.47;;;3.20;99.90;;;;;;5011820;28;20164;-67
2022/11/14 03:00:41;;;;;;;10.13;9.10;;;3.20;99.90;;;;;;5014397;28;20595;-67
2022/11/14 03:03:07;;;;;;;10.77;8.93;;;3.10;99.90;;;;;;5015614;28;20208;-67
2022/11/14 03:05:32;;;;;;;11.03;10.13;;;3.10;99.90;;;;;;5014151;28;20180;-67
2022/11/14 03:07:58;;;;;;;10.23;9.40;;;3.10;99.90;;;;;;5015760;28;20168;-67
2022/11/14 03:10:24;;;;;;;9.43;8.53;;;3.10;99.90;;;;;;5013646;28;20267;-67
2022/11/14 03:12:54;;;;;;;10.07;9.30;;;3.00;99.90;;;;;;5015292;28;20560;-67
2022/11/14 03:15:20;;;;;;;12.47;9.30;;;3.00;99.90;;;;;;5014082;28;20585;-67
2022/11/14 03:17:45;;;;;;;8.23;7.63;;;2.90;99.90;;;;;;5015349;28;20183;-67
2022/11/14 03:20:11;;;;;;;9.50;8.63;;;2.90;99.90;;;;;;5015063;28;20219;-67
2022/11/14 03:22:36;;;;;;;8.43;7.80;;;2.80;99.90;;;;;;5015144;28;20295;-67
2022/11/14 03:25:02;;;;;;;7.97;7.37;;;2.80;99.90;;;;;;5014982;28;20207;-67
2022/11/14 03:27:28;;;;;;;9.43;8.53;;;2.80;99.90;;;;;;5015315;28;20164;-67
2022/11/14 03:29:53;;;;;;;10.00;7.93;;;2.80;99.90;;;;;;5014710;28;20176;-67
2022/11/14 03:32:19;;;;;;;8.63;7.80;;;2.80;99.90;;;;;;5015407;28;20677;-67
2022/11/14 03:34:44;;;;;;;8.23;7.67;;;2.80;99.90;;;;;;5014766;28;20565;-67
2022/11/14 03:37:10;;;;;;;8.60;8.10;;;2.90;99.90;;;;;;5013874;28;20191;-67
2022/11/14 03:39:35;;;;;;;9.23;8.13;;;3.00;99.90;;;;;;5014614;28;20211;-67
2022/11/14 03:42:01;;;;;;;8.70;8.00;;;3.00;99.90;;;;;;5013534;28;20220;-67
2022/11/14 03:44:27;;;;;;;9.17;8.47;;;3.10;99.90;;;;;;5014972;28;20230;-67
2022/11/14 03:46:52;;;;;;;9.17;8.47;;;3.20;99.90;;;;;;5014804;28;20176;-67
2022/11/14 03:49:18;;;;;;;9.17;8.27;;;3.30;99.90;;;;;;5014528;28;20262;-67
2022/11/14 03:51:43;;;;;;;9.07;8.37;;;3.30;99.90;;;;;;5013323;28;20206;-67
2022/11/14 03:54:09;;;;;;;9.87;8.90;;;3.40;99.90;;;;;;5014453;28;20270;-67
2022/11/14 03:56:35;;;;;;;10.80;9.90;;;3.40;99.90;;;;;;5014375;28;20188;-67
2022/11/14 03:59:00;;;;;;;10.17;9.47;;;3.40;99.90;;;;;;5014683;28;20215;-67
2022/11/14 04:01:27;;;;;;;10.43;9.60;;;3.40;99.90;;;;;;5012710;28;20203;-67
2022/11/14 04:03:53;;;;;;;11.07;10.30;;;3.40;99.90;;;;;;5013188;28;20283;-67
2022/11/14 04:06:19;;;;;;;11.23;10.23;;;3.40;99.90;;;;;;5014263;28;20620;-67
2022/11/14 04:08:44;;;;;;;10.37;9.37;;;3.50;99.90;;;;;;5013118;28;20172;-67
2022/11/14 04:11:10;;;;;;;10.23;9.63;;;3.50;99.90;;;;;;5013602;28;20259;-67
2022/11/14 04:13:36;;;;;;;10.43;9.73;;;3.50;99.90;;;;;;5014250;28;20688;-67
2022/11/14 04:16:01;;;;;;;9.70;9.20;;;3.50;99.90;;;;;;5014246;28;20212;-67
2022/11/14 04:18:27;;;;;;;11.80;10.67;;;3.40;99.90;;;;;;5014650;28;20176;-67
2022/11/14 04:20:53;;;;;;;10.10;9.40;;;3.40;99.90;;;;;;5012356;28;20175;-67
2022/11/14 04:23:19;;;;;;;10.50;9.80;;;3.40;99.90;;;;;;5014166;28;20689;-67
2022/11/14 04:25:45;;;;;;;11.73;10.80;;;3.40;99.90;;;;;;5012792;28;20608;-67
2022/11/14 04:28:11;;;;;;;10.40;9.73;;;3.40;99.90;;;;;;5012688;28;20187;-67
2022/11/14 04:30:37;;;;;;;10.13;9.53;;;3.30;99.90;;;;;;5013793;28;20230;-67
2022/11/14 04:33:03;;;;;;;10.63;10.00;;;3.30;99.90;;;;;;5012633;28;20208;-67
2022/11/14 04:35:29;;;;;;;10.10;9.47;;;3.30;99.90;;;;;;5012615;28;20187;-67
2022/11/14 04:37:55;;;;;;;11.13;10.13;;;3.20;99.90;;;;;;5012443;28;20180;-67
2022/11/14 04:40:20;;;;;;;10.43;9.43;;;3.20;99.90;;;;;;5013739;28;20179;-67
2022/11/14 04:42:47;;;;;;;11.13;10.33;;;3.20;99.90;;;;;;5012151;28;20234;-67
2022/11/14 04:45:13;;;;;;;9.93;9.23;;;3.20;99.90;;;;;;5012685;28;20208;-67
2022/11/14 04:47:41;;;;;;;9.43;8.63;;;3.20;99.90;;;;;;5012081;28;20600;-67
2022/11/14 04:50:07;;;;;;;10.10;9.10;;;3.20;99.90;;;;;;5012245;28;20176;-67
2022/11/14 04:52:32;;;;;;;9.97;9.17;;;3.20;99.90;;;;;;5013182;28;20210;-67
2022/11/14 04:54:58;;;;;;;9.50;8.43;;;3.20;99.90;;;;;;5013770;28;20180;-67
2022/11/14 04:57:23;;;;;;;9.83;8.87;;;3.30;99.90;;;;;;5012597;28;20199;-67
2022/11/14 04:59:49;;;;;;;10.77;9.77;;;3.30;99.90;;;;;;5013447;28;20180;-67
2022/11/14 05:02:15;;;;;;;11.27;10.20;;;3.30;99.90;;;;;;5013663;28;20216;-67
2022/11/14 05:04:40;;;;;;;12.33;9.23;;;3.30;99.90;;;;;;5013368;28;20180;-67
2022/11/14 05:07:06;;;;;;;9.60;9.03;;;3.30;99.90;;;;;;5013444;28;20550;-67
2022/11/14 05:09:31;;;;;;;10.87;9.87;;;3.30;99.90;;;;;;5012941;28;20179;-67
2022/11/14 05:11:57;;;;;;;11.17;10.17;;;3.40;99.90;;;;;;5013392;28;20222;-67
2022/11/14 05:14:23;;;;;;;10.63;9.73;;;3.40;99.90;;;;;;5012045;28;20226;-67
2022/11/14 05:16:48;;;;;;;9.90;9.20;;;3.40;99.90;;;;;;5013019;28;20184;-67
2022/11/14 05:19:14;;;;;;;12.63;11.43;;;3.50;99.90;;;;;;5012941;28;20180;-67
2022/11/14 05:21:39;;;;;;;11.20;10.50;;;3.50;99.90;;;;;;5011782;28;20291;-67
2022/11/14 05:24:05;;;;;;;10.40;9.63;;;3.50;99.90;;;;;;5011970;28;20557;-67
2022/11/14 05:26:31;;;;;;;11.50;10.73;;;3.50;99.90;;;;;;5012734;28;20458;-67
2022/11/14 05:28:56;;;;;;;11.50;10.60;;;3.50;99.90;;;;;;5011780;28;20176;-67
2022/11/14 05:31:22;;;;;;;10.40;9.53;;;3.50;99.90;;;;;;5011177;28;20266;-67
2022/11/14 05:33:47;;;;;;;11.13;10.13;;;3.50;99.90;;;;;;5011371;28;20221;-67
2022/11/14 05:36:15;;;;;;;10.33;9.73;;;3.50;99.90;;;;;;5012659;28;20231;-67
2022/11/14 05:38:41;;;;;;;12.30;11.27;;;3.40;99.90;;;;;;5012628;28;20330;-67
2022/11/14 05:41:12;;;;;;;11.50;10.23;;;3.40;99.90;;;;;;5012473;28;20274;-67
2022/11/14 05:43:39;;;;;;;10.47;9.77;;;3.30;99.90;;;;;;5012867;28;20195;-67
2022/11/14 05:46:08;;;;;;;11.03;9.97;;;3.30;99.90;;;;;;5011187;28;20225;-67
2022/11/14 05:48:34;;;;;;;9.70;9.03;;;3.20;99.90;;;;;;5012513;28;20180;-67
2022/11/14 05:51:01;;;;;;;10.53;9.67;;;3.20;99.90;;;;;;5012162;28;20183;-67
2022/11/14 05:53:28;;;;;;;10.67;9.57;;;3.20;99.90;;;;;;5011080;28;20250;-67
2022/11/14 05:55:54;;;;;;;10.27;9.27;;;3.20;99.90;;;;;;5012189;28;20182;-67
2022/11/14 05:58:20;;;;;;;9.57;8.87;;;3.20;99.90;;;;;;5012597;28;20247;-67
2022/11/14 06:00:46;;;;;;;9.03;8.43;;;3.10;99.90;;;;;;5010720;28;20246;-67
2022/11/14 06:03:13;;;;;;;9.87;8.93;;;3.10;99.90;;;;;;5011771;28;20701;-67
2022/11/14 06:05:39;;;;;;;9.63;8.93;;;3.10;99.90;;;;;;5012239;28;20199;-67
2022/11/14 06:08:05;;;;;;;8.63;7.90;;;3.10;99.90;;;;;;5011035;28;20184;-67
2022/11/14 06:10:30;;;;;;;18.10;7.97;;;3.10;99.90;;;;;;5010737;28;20182;-67
2022/11/14 06:12:56;;;;;;;9.20;8.50;;;3.10;99.90;;;;;;5011872;28;20208;-68
2022/11/14 06:15:22;;;;;;;8.83;8.07;;;3.10;99.90;;;;;;5011018;28;20175;-67
2022/11/14 06:17:47;;;;;;;9.90;9.00;;;3.10;99.90;;;;;;5010840;28;20505;-68
2022/11/14 06:20:14;;;;;;;8.50;7.97;;;3.20;99.90;;;;;;5010570;28;20184;-67
2022/11/14 06:22:40;;;;;;;8.97;8.27;;;3.20;99.90;;;;;;5011670;28;20211;-67
2022/11/14 06:25:06;;;;;;;11.93;8.83;;;3.20;99.90;;;;;;5010753;28;20316;-67
2022/11/14 06:27:31;;;;;;;9.80;8.93;;;3.30;99.90;;;;;;5012071;28;20255;-67
2022/11/14 06:29:57;;;;;;;8.40;7.83;;;3.30;99.90;;;;;;5010200;28;20176;-67
2022/11/14 06:32:23;;;;;;;9.57;8.60;;;3.40;99.90;;;;;;5012058;28;20207;-67
2022/11/14 06:34:48;;;;;;;10.47;9.77;;;3.40;99.90;;;;;;5011507;28;20220;-67
2022/11/14 06:37:14;;;;;;;9.80;9.10;;;3.40;99.90;;;;;;5010618;28;20222;-67
2022/11/14 06:39:40;;;;;;;9.83;9.13;;;3.40;99.90;;;;;;5010065;28;20281;-67
2022/11/14 06:42:06;;;;;;;11.50;10.67;;;3.80;99.90;;;;;;5011812;28;20685;-67
2022/11/14 06:44:31;;;;;;;10.40;9.67;;;3.30;99.90;;;;;;5011588;28;20262;-67
2022/11/14 06:46:57;;;;;;;11.00;10.37;;;3.40;99.90;;;;;;5011802;28;20165;-67
2022/11/14 06:49:26;;;;;;;9.63;8.83;;;3.50;99.90;;;;;;5011357;28;20188;-67
2022/11/14 06:51:52;;;;;;;11.07;10.27;;;3.30;99.90;;;;;;5010458;28;20180;-67
2022/11/14 06:54:18;;;;;;;12.07;10.67;;;3.30;99.90;;;;;;5011480;28;20611;-67
2022/11/14 06:56:44;;;;;;;10.30;9.77;;;3.40;99.90;;;;;;5011447;28;20176;-67
2022/11/14 06:59:09;;;;;;;11.53;10.73;;;3.60;99.90;;;;;;5011460;28;20176;-67
2022/11/14 07:01:35;;;;;;;10.87;10.13;;;3.50;99.90;;;;;;5011356;28;20207;-67
2022/11/14 07:04:01;;;;;;;11.00;10.20;;;3.50;99.90;;;;;;5009889;28;20286;-67
2022/11/14 07:06:28;;;;;;;12.00;11.10;;;3.60;99.90;;;;;;5009760;28;20255;-67
2022/11/14 07:08:55;;;;;;;12.67;9.77;;;3.70;99.90;;;;;;5010021;28;20211;-67
2022/11/14 07:11:25;;;;;;;11.93;11.00;;;3.80;99.90;;;;;;5010020;28;20267;-67
2022/11/14 07:13:50;;;;;;;10.83;10.13;;;3.80;99.90;;;;;;5010345;28;20212;-67
2022/11/14 07:16:16;;;;;;;11.30;10.43;;;3.90;99.90;;;;;;5009927;28;20231;-67
2022/11/14 07:18:42;;;;;;;10.10;9.10;;;3.90;99.90;;;;;;5010072;28;20176;-67
2022/11/14 07:21:08;;;;;;;14.37;10.40;;;3.90;99.90;;;;;;5009733;28;20206;-67
2022/11/14 07:23:34;;;;;;;11.20;10.20;;;3.90;99.90;;;;;;5009859;28;20196;-67
2022/11/14 07:26:01;;;;;;;10.73;9.77;;;4.00;99.90;;;;;;5010116;28;20267;-67
2022/11/14 07:28:27;;;;;;;15.27;10.03;;;4.10;99.90;;;;;;5010971;28;20190;-67
2022/11/14 07:30:53;;;;;;;10.27;9.23;;;4.20;99.90;;;;;;5010865;28;20172;-67
2022/11/14 07:33:18;;;;;;;9.93;9.00;;;4.40;99.90;;;;;;5011068;28;20235;-67
2022/11/14 07:35:44;;;;;;;11.17;10.10;;;4.50;99.90;;;;;;5010034;28;20724;-67
2022/11/14 07:38:10;;;;;;;10.37;9.37;;;4.70;99.90;;;;;;5010903;28;20571;-67
2022/11/14 07:40:35;;;;;;;12.40;10.17;;;4.80;99.90;;;;;;5010803;28;20521;-67
2022/11/14 07:43:01;;;;;;;9.83;8.93;;;4.90;99.90;;;;;;5009554;28;20697;-67
2022/11/14 07:45:28;;;;;;;13.20;11.43;;;5.10;99.90;;;;;;5012254;28;20248;-67
2022/11/14 07:47:58;;;;;;;15.33;10.60;;;5.00;99.90;;;;;;5014534;28;20172;-67
2022/11/14 07:50:25;;;;;;;10.97;9.77;;;5.30;99.90;;;;;;5013808;28;20650;-67
2022/11/14 07:52:54;;;;;;;10.67;9.50;;;5.40;99.90;;;;;;5013149;28;20303;-67
2022/11/14 07:55:20;;;;;;;11.30;8.97;;;5.50;99.90;;;;;;5014688;28;20259;-67
2022/11/14 07:57:47;;;;;;;11.37;10.30;;;5.60;99.90;;;;;;5013575;28;20270;-67
2022/11/14 08:00:14;;;;;;;13.83;9.87;;;5.70;99.90;;;;;;5012614;28;20184;-67
2022/11/14 08:02:39;;;;;;;12.93;10.53;;;5.80;99.90;;;;;;5012621;28;20227;-70
2022/11/14 08:05:05;;;;;;;14.53;9.07;;;5.80;99.90;;;;;;5014446;28;20606;-69
2022/11/14 08:07:31;;;;;;;11.97;10.73;;;5.90;99.90;;;;;;5014043;28;20255;-67
2022/11/14 08:09:57;;;;;;;13.87;10.33;;;6.00;99.90;;;;;;5012770;28;20264;-68
2022/11/14 08:12:22;;;;;;;18.70;11.47;;;5.90;99.90;;;;;;5014028;28;20744;-68
2022/11/14 08:14:48;;;;;;;13.43;10.97;;;6.20;99.90;;;;;;5014077;28;20184;-68
2022/11/14 08:17:14;;;;;;;14.67;10.13;;;6.20;99.90;;;;;;5012885;28;20182;-67
2022/11/14 08:19:39;;;;;;;13.40;9.70;;;6.40;99.90;;;;;;5012204;28;20314;-68
2022/11/14 08:22:06;;;;;;;19.20;12.03;;;6.40;99.90;;;;;;5012634;28;20692;-68
2022/11/14 08:24:32;;;;;;;12.20;10.33;;;6.40;99.90;;;;;;5012783;28;20688;-67
2022/11/14 08:26:57;;;;;;;14.63;11.43;;;6.50;99.90;;;;;;5013734;28;20211;-68
2022/11/14 08:29:23;;;;;;;18.47;11.77;;;6.50;99.90;;;;;;5012438;28;20238;-68
2022/11/14 08:31:49;;;;;;;15.10;11.93;;;6.30;99.90;;;;;;5012473;28;20207;-68
2022/11/14 08:34:14;;;;;;;21.60;12.90;;;6.60;99.90;;;;;;5010690;28;20203;-68
2022/11/14 08:36:40;;;;;;;24.00;11.93;;;6.60;99.90;;;;;;5012174;28;20271;-67
2022/11/14 08:39:06;;;;;;;14.53;11.03;;;6.70;99.90;;;;;;5012629;28;20191;-67
2022/11/14 08:41:31;;;;;;;20.77;14.20;;;6.70;99.90;;;;;;5012067;28;20207;-67
2022/11/14 08:43:57;;;;;;;15.13;10.87;;;6.70;99.90;;;;;;5012192;28;20196;-67
2022/11/14 08:46:22;;;;;;;14.93;11.90;;;6.70;99.90;;;;;;5012640;28;20550;-67
2022/11/14 08:48:48;;;;;;;19.97;11.77;;;6.80;99.90;;;;;;5013464;28;20591;-67
2022/11/14 08:51:13;;;;;;;19.13;12.97;;;6.80;99.90;;;;;;5012124;28;20176;-66
2022/11/14 08:53:39;;;;;;;16.83;11.50;;;6.80;99.90;;;;;;5011735;28;20295;-67
2022/11/14 08:56:05;;;;;;;23.17;12.30;;;6.90;99.90;;;;;;5011962;28;20227;-67
2022/11/14 08:58:31;;;;;;;18.90;13.20;;;7.00;99.90;;;;;;5012707;28;20302;-67
2022/11/14 09:01:02;;;;;;;19.27;13.07;;;6.90;99.90;;;;;;5013165;28;20242;-66
2022/11/14 09:03:28;;;;;;;20.10;13.13;;;7.10;99.90;;;;;;5012899;28;20211;-68
2022/11/14 09:05:54;;;;;;;17.47;12.60;;;7.10;99.90;;;;;;5011080;28;20185;-68
2022/11/14 09:08:20;;;;;;;16.60;12.30;;;7.20;99.90;;;;;;5011900;28;20180;-68
2022/11/14 09:10:46;;;;;;;14.53;10.97;;;7.20;99.90;;;;;;5011293;28;20202;-68
2022/11/14 09:13:11;;;;;;;18.70;11.93;;;7.20;99.90;;;;;;5011789;28;20235;-68
2022/11/14 09:15:37;;;;;;;14.63;11.70;;;7.20;99.90;;;;;;5012825;28;20184;-68
2022/11/14 09:18:02;;;;;;;17.70;12.37;;;7.30;99.90;;;;;;5012880;28;20633;-68
2022/11/14 09:20:31;;;;;;;18.80;11.40;;;7.30;99.90;;;;;;5011210;28;20182;-68
2022/11/14 09:23:00;;;;;;;11.53;10.30;;;7.30;99.90;;;;;;5011421;28;20212;-68
2022/11/14 09:25:28;;;;;;;19.53;12.90;;;7.40;99.90;;;;;;5011651;28;20177;-68
2022/11/14 09:27:53;;;;;;;14.43;11.97;;;7.40;99.90;;;;;;5011573;28;20602;-68
2022/11/14 09:30:19;;;;;;;22.20;11.93;;;7.40;99.90;;;;;;5012432;28;20259;-67
2022/11/14 09:32:45;;;;;;;16.83;11.40;;;7.50;99.90;;;;;;5012533;28;20200;-66
2022/11/14 09:35:11;;;;;;;16.63;11.50;;;7.50;99.90;;;;;;5012518;28;20617;-66
2022/11/14 09:37:38;;;;;;;14.90;10.37;;;7.50;99.90;;;;;;5009279;28;20195;-67
2022/11/14 09:40:04;;;;;;;15.70;12.23;;;7.60;99.90;;;;;;5010966;28;20605;-67
2022/11/14 09:43:14;;;;;;;12.40;10.07;;;7.60;99.90;;;;;;5011073;28;20262;-67
2022/11/14 09:45:47;;;;;;;13.03;11.60;;;7.60;99.90;;;;;;5008123;28;20595;-67
2022/11/14 09:48:17;;;;;;;15.90;11.30;;;7.70;99.90;;;;;;4993226;28;20246;-67
2022/11/14 09:50:52;;;;;;;14.33;11.20;;;7.80;99.90;;;;;;5010667;28;20366;-67
2022/11/14 09:53:30;;;;;;;14.67;11.90;;;7.80;99.90;;;;;;5011940;28;20203;-67
2022/11/14 09:55:57;;;;;;;21.47;12.77;;;7.90;99.90;;;;;;5023299;28;20616;-67
2022/11/14 09:58:22;;;;;;;14.67;11.03;;;8.00;99.90;;;;;;5010265;28;20187;-67
2022/11/14 10:00:51;;;;;;;13.73;9.90;;;8.10;99.90;;;;;;5011704;28;20226;-67
2022/11/14 10:03:26;;;;;;;12.27;9.63;;;8.20;99.90;;;;;;5011870;28;20266;-67
2022/11/14 10:06:24;;;;;;;14.67;11.10;;;8.30;99.90;;;;;;5011838;28;20238;-67
2022/11/14 10:09:20;;;;;;;14.37;11.10;;;8.40;99.90;;;;;;5009554;28;20215;-67
2022/11/14 10:11:58;;;;;;;16.43;11.70;;;8.50;99.90;;;;;;5018398;28;20243;-67
2022/11/14 10:14:42;;;;;;;18.17;11.47;;;8.60;99.90;;;;;;5012166;28;20697;-67
2022/11/14 10:17:31;;;;;;;20.43;12.03;;;8.60;99.90;;;;;;5010399;28;20183;-67
2022/11/14 10:20:12;;;;;;;14.80;10.30;;;8.70;99.90;;;;;;5016020;28;20273;-67
2022/11/14 10:22:40;;;;;;;14.77;10.73;;;8.80;99.90;;;;;;5010491;28;20204;-67
2022/11/14 10:25:14;;;;;;;13.13;11.03;;;8.90;99.90;;;;;;5011697;28;20181;-67
2022/11/14 10:27:53;;;;;;;12.77;10.03;;;9.00;99.90;;;;;;5011882;28;20230;-67
2022/11/14 10:30:19;;;;;;;15.57;10.23;;;9.00;99.90;;;;;;5011375;28;20176;-67
2022/11/14 10:33:03;;;;;;;16.87;10.60;;;9.10;99.90;;;;;;5010436;28;20286;-67
2022/11/14 10:35:36;;;;;;;12.53;10.53;;;9.20;99.90;;;;;;5010422;28;20315;-67
2022/11/14 10:38:11;;;;;;;12.90;10.37;;;9.20;99.90;;;;;;5010369;28;20199;-67
2022/11/14 10:40:44;;;;;;;12.07;10.47;;;9.20;99.90;;;;;;5008875;28;20182;-67
2022/11/14 10:43:45;;;;;;;10.20;8.87;;;9.10;99.90;;;;;;5011749;28;20207;-67
2022/11/14 10:46:49;;;;;;;13.77;9.83;;;9.20;99.90;;;;;;4992082;28;20212;-67
2022/11/14 10:49:20;;;;;;;12.20;9.80;;;9.30;99.90;;;;;;5017314;28;20270;-67
2022/11/14 10:51:51;;;;;;;16.97;10.60;;;9.30;99.90;;;;;;5026535;28;20382;-67
2022/11/14 10:54:23;;;;;;;13.57;8.87;;;9.30;99.90;;;;;;5010132;28;20207;-67
2022/11/14 10:56:51;;;;;;;12.40;9.97;;;9.20;99.90;;;;;;5010867;28;20179;-67
2022/11/14 10:59:17;;;;;;;15.03;10.07;;;9.20;99.90;;;;;;5011194;28;20176;-67
2022/11/14 11:02:03;;;;;;;11.53;8.90;;;9.30;99.90;;;;;;5011156;28;20220;-67
2022/11/14 11:04:34;;;;;;;11.50;9.80;;;9.20;99.90;;;;;;5010971;28;20215;-67
2022/11/14 11:07:08;;;;;;;14.57;10.03;;;9.30;99.90;;;;;;5011726;28;20177;-67
2022/11/14 11:12:22;;;;;;;12.10;10.70;;;9.40;99.90;;;;;;5011541;28;20215;-67
2022/11/14 11:15:10;;;;;;;12.67;10.37;;;9.60;99.90;;;;;;5011222;28;20180;-67
2022/11/14 11:17:36;;;;;;;15.53;10.70;;;9.90;99.90;;;;;;5011542;28;20176;-68
2022/11/14 11:20:36;;;;;;;12.90;10.77;;;9.80;99.90;;;;;;5011687;28;20180;-68
2022/11/14 11:23:16;;;;;;;14.10;11.00;;;9.90;99.90;;;;;;5013693;28;20306;-68
2022/11/14 11:25:41;;;;;;;10.63;9.30;;;9.90;99.90;;;;;;5012426;28;20184;-68
2022/11/14 11:28:11;;;;;;;9.80;7.90;;;10.10;99.90;;;;;;5015130;28;20176;-68
2022/11/14 11:30:38;;;;;;;15.87;9.53;;;10.10;99.90;;;;;;5014400;28;20184;-65
2022/11/14 11:33:23;;;;;;;14.50;9.73;;;10.20;99.90;;;;;;5013679;28;20199;-66
2022/11/14 11:35:52;;;;;;;13.77;9.97;;;10.30;99.90;;;;;;5013530;28;20188;-67
2022/11/14 11:38:18;;;;;;;14.27;9.87;;;10.40;99.90;;;;;;5014972;28;20552;-67
2022/11/14 11:40:47;;;;;;;15.80;10.10;;;10.60;99.90;;;;;;5014192;28;20195;-67
2022/11/14 11:43:24;;;;;;;11.47;9.20;;;10.70;99.90;;;;;;5011966;28;20265;-67
2022/11/14 11:45:51;;;;;;;13.53;9.17;;;10.60;99.90;;;;;;5013276;28;20798;-67
2022/11/14 11:48:19;;;;;;;11.10;9.37;;;10.50;99.90;;;;;;5014785;28;20165;-67
2022/11/14 11:50:45;;;;;;;13.20;9.57;;;10.40;99.90;;;;;;5012862;28;20650;-67
2022/11/14 11:53:22;;;;;;;15.03;10.37;;;10.30;99.90;;;;;;5014554;28;20199;-67
2022/11/14 11:55:58;;;;;;;10.77;9.53;;;9.90;99.90;;;;;;5013210;28;20184;-67
2022/11/14 11:58:50;;;;;;;12.23;10.33;;;9.80;99.90;;;;;;5012145;28;20235;-67
2022/11/14 12:01:16;;;;;;;13.83;11.03;;;9.80;99.90;;;;;;5011417;28;20183;-67
2022/11/14 12:03:47;;;;;;;17.37;10.07;;;9.90;99.90;;;;;;5013057;28;20607;-67
2022/11/14 12:06:24;;;;;;;9.70;8.67;;;10.00;99.90;;;;;;5013069;28;20183;-67
2022/11/14 12:09:23;;;;;;;16.43;11.50;;;10.00;99.90;;;;;;5014564;28;20218;-66
2022/11/14 12:11:56;;;;;;;13.77;9.63;;;10.00;99.90;;;;;;5012982;28;20180;-68
2022/11/14 12:14:34;;;;;;;14.80;10.90;;;10.10;99.90;;;;;;5009834;28;20226;-67
2022/11/14 12:16:59;;;;;;;13.70;9.80;;;10.20;99.90;;;;;;5013218;28;20284;-67
2022/11/14 12:19:54;;;;;;;15.33;10.10;;;10.20;99.90;;;;;;5013966;28;20223;-67
2022/11/14 12:22:40;;;;;;;15.60;9.47;;;10.30;99.90;;;;;;5012988;28;20254;-67
2022/11/14 12:25:38;;;;;;;14.87;10.63;;;10.40;99.90;;;;;;5011524;28;20172;-67
2022/11/14 12:28:25;;;;;;;12.37;9.50;;;10.60;99.90;;;;;;5012854;28;20173;-68
2022/11/14 12:30:55;;;;;;;11.57;9.13;;;10.70;99.90;;;;;;5012849;28;20164;-67
2022/11/14 12:33:24;;;;;;;11.63;10.00;;;10.80;99.90;;;;;;5014054;28;20200;-68
2022/11/14 12:35:59;;;;;;;13.20;11.90;;;10.90;99.90;;;;;;5014025;28;20539;-67
2022/11/14 12:38:42;;;;;;;14.10;8.33;;;11.20;99.90;;;;;;5012523;28;20176;-68
2022/11/14 12:41:09;;;;;;;16.00;10.53;;;11.20;59.70;;;;;;5013554;28;20222;-67
2022/11/14 12:43:37;;;;;;;13.97;9.90;;;11.00;87.70;;;;;;5012413;28;20689;-67
2022/11/14 12:46:11;;;;;;;15.30;9.70;;;11.10;94.80;;;;;;5011538;28;20537;-67
2022/11/14 12:48:41;;;;;;;15.30;10.77;;;11.20;73.20;;;;;;5012245;28;20606;-68
2022/11/14 12:51:28;;;;;;;12.20;8.73;;;11.10;87.10;;;;;;5013391;28;20169;-67
2022/11/14 12:53:57;;;;;;;10.57;8.43;;;10.90;96.30;;;;;;5013428;28;20254;-66